sensor_id;sensor_type;location;lat;lon;timestamp;temperature;humidity
74364;DHT22;62797;49.740;10.154;2024-01-30T00:00:32;-1.10;68.90
74364;DHT22;62797;49.740;10.154;2024-01-30T00:03:04;-1.10;68.80
74364;DHT22;62797;49.740;10.154;2024-01-30T00:05:35;-1.10;69.00
74364;DHT22;62797;49.740;10.154;2024-01-30T00:08:07;-1.10;69.50
74364;DHT22;62797;49.740;10.154;2024-01-30T00:10:39;-1.10;70.00
74364;DHT22;62797;49.740;10.154;2024-01-30T00:13:12;-1.20;69.80
74364;DHT22;62797;49.740;10.154;2024-01-30T00:15:46;-1.20;69.60
74364;DHT22;62797;49.740;10.154;2024-01-30T00:18:18;-1.20;70.30
74364;DHT22;62797;49.740;10.154;2024-01-30T00:20:50;-1.20;71.30
74364;DHT22;62797;49.740;10.154;2024-01-30T00:23:29;-1.20;71.70
74364;DHT22;62797;49.740;10.154;2024-01-30T00:26:01;-1.10;71.10
74364;DHT22;62797;49.740;10.154;2024-01-30T00:28:34;-1.10;70.80
74364;DHT22;62797;49.740;10.154;2024-01-30T00:31:13;-1.10;70.20
74364;DHT22;62797;49.740;10.154;2024-01-30T00:33:45;-1.10;68.90
74364;DHT22;62797;49.740;10.154;2024-01-30T00:36:24;-1.20;67.50
74364;DHT22;62797;49.740;10.154;2024-01-30T00:38:56;-1.20;69.30
74364;DHT22;62797;49.740;10.154;2024-01-30T00:41:28;-1.20;69.40
74364;DHT22;62797;49.740;10.154;2024-01-30T00:44:00;-1.20;69.70
74364;DHT22;62797;49.740;10.154;2024-01-30T00:46:32;-1.20;70.20
74364;DHT22;62797;49.740;10.154;2024-01-30T00:49:04;-1.20;70.40
74364;DHT22;62797;49.740;10.154;2024-01-30T00:51:36;-1.30;70.30
74364;DHT22;62797;49.740;10.154;2024-01-30T00:54:08;-1.20;70.60
74364;DHT22;62797;49.740;10.154;2024-01-30T00:56:40;-1.30;69.60
74364;DHT22;62797;49.740;10.154;2024-01-30T00:59:12;-1.20;69.80
74364;DHT22;62797;49.740;10.154;2024-01-30T01:01:46;-1.30;70.30
74364;DHT22;62797;49.740;10.154;2024-01-30T01:04:18;-1.30;70.20
74364;DHT22;62797;49.740;10.154;2024-01-30T01:06:50;-1.30;69.50
74364;DHT22;62797;49.740;10.154;2024-01-30T01:09:22;-1.30;69.70
74364;DHT22;62797;49.740;10.154;2024-01-30T01:11:53;-1.30;70.40
74364;DHT22;62797;49.740;10.154;2024-01-30T01:14:25;-1.30;70.70
74364;DHT22;62797;49.740;10.154;2024-01-30T01:16:57;-1.30;69.50
74364;DHT22;62797;49.740;10.154;2024-01-30T01:19:29;-1.30;69.80
74364;DHT22;62797;49.740;10.154;2024-01-30T01:22:01;-1.30;69.90
74364;DHT22;62797;49.740;10.154;2024-01-30T01:24:40;-1.30;70.20
74364;DHT22;62797;49.740;10.154;2024-01-30T01:27:12;-1.30;70.10
74364;DHT22;62797;49.740;10.154;2024-01-30T01:29:45;-1.40;69.80
74364;DHT22;62797;49.740;10.154;2024-01-30T01:32:17;-1.30;70.20
74364;DHT22;62797;49.740;10.154;2024-01-30T01:34:49;-1.30;69.40
74364;DHT22;62797;49.740;10.154;2024-01-30T01:37:21;-1.40;69.10
74364;DHT22;62797;49.740;10.154;2024-01-30T01:39:54;-1.40;69.40
74364;DHT22;62797;49.740;10.154;2024-01-30T01:42:26;-1.50;70.30
74364;DHT22;62797;49.740;10.154;2024-01-30T01:44:58;-1.50;70.30
74364;DHT22;62797;49.740;10.154;2024-01-30T01:47:30;-1.50;70.50
74364;DHT22;62797;49.740;10.154;2024-01-30T01:50:03;-1.50;69.40
74364;DHT22;62797;49.740;10.154;2024-01-30T01:52:36;-1.50;69.70
74364;DHT22;62797;49.740;10.154;2024-01-30T01:55:08;-1.40;69.90
74364;DHT22;62797;49.740;10.154;2024-01-30T01:57:41;-1.50;70.10
74364;DHT22;62797;49.740;10.154;2024-01-30T02:00:14;-1.40;69.70
74364;DHT22;62797;49.740;10.154;2024-01-30T02:02:46;-1.50;69.30
74364;DHT22;62797;49.740;10.154;2024-01-30T02:05:18;-1.60;69.50
74364;DHT22;62797;49.740;10.154;2024-01-30T02:07:51;-1.60;69.80
74364;DHT22;62797;49.740;10.154;2024-01-30T02:10:23;-1.60;70.10
74364;DHT22;62797;49.740;10.154;2024-01-30T02:12:55;-1.50;69.70
74364;DHT22;62797;49.740;10.154;2024-01-30T02:15:28;-1.50;69.80
74364;DHT22;62797;49.740;10.154;2024-01-30T02:18:00;-1.50;69.60
74364;DHT22;62797;49.740;10.154;2024-01-30T02:20:34;-1.50;69.20
74364;DHT22;62797;49.740;10.154;2024-01-30T02:23:18;-1.50;69.70
74364;DHT22;62797;49.740;10.154;2024-01-30T02:25:50;-1.50;69.30
74364;DHT22;62797;49.740;10.154;2024-01-30T02:28:24;-1.60;69.20
74364;DHT22;62797;49.740;10.154;2024-01-30T02:30:56;-1.60;69.40
74364;DHT22;62797;49.740;10.154;2024-01-30T02:33:28;-1.60;69.90
74364;DHT22;62797;49.740;10.154;2024-01-30T02:36:00;-1.60;69.90
74364;DHT22;62797;49.740;10.154;2024-01-30T02:38:32;-1.60;69.80
74364;DHT22;62797;49.740;10.154;2024-01-30T02:41:04;-1.60;70.10
74364;DHT22;62797;49.740;10.154;2024-01-30T02:43:36;-1.60;70.10
74364;DHT22;62797;49.740;10.154;2024-01-30T02:46:08;-1.60;70.00
74364;DHT22;62797;49.740;10.154;2024-01-30T02:48:40;-1.60;70.20
74364;DHT22;62797;49.740;10.154;2024-01-30T02:51:12;-1.60;69.80
74364;DHT22;62797;49.740;10.154;2024-01-30T02:53:44;-1.60;70.30
74364;DHT22;62797;49.740;10.154;2024-01-30T02:56:17;-1.60;69.70
74364;DHT22;62797;49.740;10.154;2024-01-30T02:58:48;-1.50;69.60
74364;DHT22;62797;49.740;10.154;2024-01-30T03:01:20;-1.60;69.60
74364;DHT22;62797;49.740;10.154;2024-01-30T03:03:52;-1.60;69.30
74364;DHT22;62797;49.740;10.154;2024-01-30T03:06:24;-1.50;69.70
74364;DHT22;62797;49.740;10.154;2024-01-30T03:09:03;-1.60;69.80
74364;DHT22;62797;49.740;10.154;2024-01-30T03:11:36;-1.60;69.30
74364;DHT22;62797;49.740;10.154;2024-01-30T03:14:09;-1.60;70.10
74364;DHT22;62797;49.740;10.154;2024-01-30T03:16:43;-1.60;70.00
74364;DHT22;62797;49.740;10.154;2024-01-30T03:19:14;-1.60;69.60
74364;DHT22;62797;49.740;10.154;2024-01-30T03:21:53;-1.60;69.50
74364;DHT22;62797;49.740;10.154;2024-01-30T03:24:26;-1.60;69.70
74364;DHT22;62797;49.740;10.154;2024-01-30T03:26:57;-1.60;70.00
74364;DHT22;62797;49.740;10.154;2024-01-30T03:29:30;-1.60;69.70
74364;DHT22;62797;49.740;10.154;2024-01-30T03:32:02;-1.60;70.10
74364;DHT22;62797;49.740;10.154;2024-01-30T03:34:35;-1.60;69.60
74364;DHT22;62797;49.740;10.154;2024-01-30T03:37:08;-1.70;69.60
74364;DHT22;62797;49.740;10.154;2024-01-30T03:39:40;-1.70;70.00
74364;DHT22;62797;49.740;10.154;2024-01-30T03:42:12;-1.60;69.10
74364;DHT22;62797;49.740;10.154;2024-01-30T03:44:44;-1.60;69.20
74364;DHT22;62797;49.740;10.154;2024-01-30T03:47:16;-1.70;69.40
74364;DHT22;62797;49.740;10.154;2024-01-30T03:49:48;-1.70;69.50
74364;DHT22;62797;49.740;10.154;2024-01-30T03:52:20;-1.70;69.40
74364;DHT22;62797;49.740;10.154;2024-01-30T03:54:52;-1.70;68.80
74364;DHT22;62797;49.740;10.154;2024-01-30T03:57:31;-1.70;69.80
74364;DHT22;62797;49.740;10.154;2024-01-30T04:00:04;-1.70;69.50
74364;DHT22;62797;49.740;10.154;2024-01-30T04:02:45;-1.80;69.10
74364;DHT22;62797;49.740;10.154;2024-01-30T04:05:17;-1.80;69.60
74364;DHT22;62797;49.740;10.154;2024-01-30T04:07:48;-1.70;69.60
74364;DHT22;62797;49.740;10.154;2024-01-30T04:10:20;-1.80;69.20
74364;DHT22;62797;49.740;10.154;2024-01-30T04:12:52;-1.80;69.00
74364;DHT22;62797;49.740;10.154;2024-01-30T04:15:26;-1.80;69.50
74364;DHT22;62797;49.740;10.154;2024-01-30T04:17:58;-1.80;69.00
74364;DHT22;62797;49.740;10.154;2024-01-30T04:20:37;-1.80;69.60
74364;DHT22;62797;49.740;10.154;2024-01-30T04:23:11;-1.80;69.00
74364;DHT22;62797;49.740;10.154;2024-01-30T04:25:50;-1.80;69.50
74364;DHT22;62797;49.740;10.154;2024-01-30T04:28:22;-1.90;70.30
74364;DHT22;62797;49.740;10.154;2024-01-30T04:30:54;-1.80;70.30
74364;DHT22;62797;49.740;10.154;2024-01-30T04:33:26;-1.80;69.00
74364;DHT22;62797;49.740;10.154;2024-01-30T04:35:58;-1.80;69.50
74364;DHT22;62797;49.740;10.154;2024-01-30T04:38:31;-1.80;69.30
74364;DHT22;62797;49.740;10.154;2024-01-30T04:41:03;-1.80;69.60
74364;DHT22;62797;49.740;10.154;2024-01-30T04:43:35;-1.90;69.50
74364;DHT22;62797;49.740;10.154;2024-01-30T04:46:07;-1.90;69.80
74364;DHT22;62797;49.740;10.154;2024-01-30T04:48:39;-1.90;69.90
74364;DHT22;62797;49.740;10.154;2024-01-30T04:51:11;-1.80;69.50
74364;DHT22;62797;49.740;10.154;2024-01-30T04:53:43;-1.80;68.30
74364;DHT22;62797;49.740;10.154;2024-01-30T04:56:15;-1.90;68.90
74364;DHT22;62797;49.740;10.154;2024-01-30T04:58:47;-1.90;69.40
74364;DHT22;62797;49.740;10.154;2024-01-30T05:01:19;-1.90;70.00
74364;DHT22;62797;49.740;10.154;2024-01-30T05:03:51;-1.90;70.40
74364;DHT22;62797;49.740;10.154;2024-01-30T05:06:27;-1.90;70.10
74364;DHT22;62797;49.740;10.154;2024-01-30T05:08:59;-1.90;69.70
74364;DHT22;62797;49.740;10.154;2024-01-30T05:11:37;-1.90;69.80
74364;DHT22;62797;49.740;10.154;2024-01-30T05:14:11;-1.90;69.70
74364;DHT22;62797;49.740;10.154;2024-01-30T05:16:43;-1.90;69.60
74364;DHT22;62797;49.740;10.154;2024-01-30T05:19:18;-1.90;70.00
74364;DHT22;62797;49.740;10.154;2024-01-30T05:21:58;-1.90;70.20
74364;DHT22;62797;49.740;10.154;2024-01-30T05:24:30;-1.90;70.10
74364;DHT22;62797;49.740;10.154;2024-01-30T05:27:03;-1.90;70.40
74364;DHT22;62797;49.740;10.154;2024-01-30T05:29:34;-1.90;69.70
74364;DHT22;62797;49.740;10.154;2024-01-30T05:32:07;-1.90;69.40
74364;DHT22;62797;49.740;10.154;2024-01-30T05:34:39;-1.90;70.20
74364;DHT22;62797;49.740;10.154;2024-01-30T05:37:12;-1.90;70.60
74364;DHT22;62797;49.740;10.154;2024-01-30T05:39:49;-1.90;70.10
74364;DHT22;62797;49.740;10.154;2024-01-30T05:42:22;-1.90;69.70
74364;DHT22;62797;49.740;10.154;2024-01-30T05:44:55;-1.90;69.90
74364;DHT22;62797;49.740;10.154;2024-01-30T05:47:27;-2.00;69.50
74364;DHT22;62797;49.740;10.154;2024-01-30T05:50:00;-2.00;69.00
74364;DHT22;62797;49.740;10.154;2024-01-30T05:52:32;-2.10;69.60
74364;DHT22;62797;49.740;10.154;2024-01-30T05:55:06;-2.10;70.20
74364;DHT22;62797;49.740;10.154;2024-01-30T05:57:39;-2.10;70.40
74364;DHT22;62797;49.740;10.154;2024-01-30T06:00:12;-2.00;70.00
74364;DHT22;62797;49.740;10.154;2024-01-30T06:02:45;-2.10;69.50
74364;DHT22;62797;49.740;10.154;2024-01-30T06:05:17;-2.10;70.10
74364;DHT22;62797;49.740;10.154;2024-01-30T06:07:49;-2.00;70.20
74364;DHT22;62797;49.740;10.154;2024-01-30T06:10:22;-2.00;70.40
74364;DHT22;62797;49.740;10.154;2024-01-30T06:12:54;-2.00;69.70
74364;DHT22;62797;49.740;10.154;2024-01-30T06:15:26;-2.00;70.20
74364;DHT22;62797;49.740;10.154;2024-01-30T06:17:59;-2.00;69.40
74364;DHT22;62797;49.740;10.154;2024-01-30T06:20:30;-2.10;69.90
74364;DHT22;62797;49.740;10.154;2024-01-30T06:23:03;-2.10;70.20
74364;DHT22;62797;49.740;10.154;2024-01-30T06:25:41;-2.10;70.00
74364;DHT22;62797;49.740;10.154;2024-01-30T06:28:14;-2.00;70.40
74364;DHT22;62797;49.740;10.154;2024-01-30T06:30:46;-2.10;69.80
74364;DHT22;62797;49.740;10.154;2024-01-30T06:33:18;-2.10;69.70
74364;DHT22;62797;49.740;10.154;2024-01-30T06:35:51;-2.10;70.50
74364;DHT22;62797;49.740;10.154;2024-01-30T06:38:24;-2.10;70.70
74364;DHT22;62797;49.740;10.154;2024-01-30T06:40:56;-2.10;70.80
74364;DHT22;62797;49.740;10.154;2024-01-30T06:43:27;-2.20;70.60
74364;DHT22;62797;49.740;10.154;2024-01-30T06:45:59;-2.10;71.30
74364;DHT22;62797;49.740;10.154;2024-01-30T06:48:32;-2.10;71.30
74364;DHT22;62797;49.740;10.154;2024-01-30T06:51:03;-2.10;70.30
74364;DHT22;62797;49.740;10.154;2024-01-30T06:53:35;-2.10;70.80
74364;DHT22;62797;49.740;10.154;2024-01-30T06:56:08;-2.10;71.40
74364;DHT22;62797;49.740;10.154;2024-01-30T06:58:41;-2.10;70.70
74364;DHT22;62797;49.740;10.154;2024-01-30T07:01:13;-2.10;70.80
74364;DHT22;62797;49.740;10.154;2024-01-30T07:03:45;-2.10;70.50
74364;DHT22;62797;49.740;10.154;2024-01-30T07:06:16;-2.00;70.70
74364;DHT22;62797;49.740;10.154;2024-01-30T07:08:49;-2.00;70.80
74364;DHT22;62797;49.740;10.154;2024-01-30T07:11:22;-2.00;71.10
74364;DHT22;62797;49.740;10.154;2024-01-30T07:13:56;-2.00;71.60
74364;DHT22;62797;49.740;10.154;2024-01-30T07:16:27;-1.90;71.00
74364;DHT22;62797;49.740;10.154;2024-01-30T07:18:59;-1.90;71.70
74364;DHT22;62797;49.740;10.154;2024-01-30T07:21:31;-1.90;71.50
74364;DHT22;62797;49.740;10.154;2024-01-30T07:24:03;-1.90;71.90
74364;DHT22;62797;49.740;10.154;2024-01-30T07:26:36;-1.80;71.90
74364;DHT22;62797;49.740;10.154;2024-01-30T07:29:07;-1.80;71.70
74364;DHT22;62797;49.740;10.154;2024-01-30T07:31:39;-1.70;71.80
74364;DHT22;62797;49.740;10.154;2024-01-30T07:34:13;-1.70;72.00
74364;DHT22;62797;49.740;10.154;2024-01-30T07:36:45;-1.60;72.10
74364;DHT22;62797;49.740;10.154;2024-01-30T07:39:18;-1.60;71.90
74364;DHT22;62797;49.740;10.154;2024-01-30T07:41:50;-1.50;72.00
74364;DHT22;62797;49.740;10.154;2024-01-30T07:44:23;-1.50;71.70
74364;DHT22;62797;49.740;10.154;2024-01-30T07:46:55;-1.40;71.90
74364;DHT22;62797;49.740;10.154;2024-01-30T07:49:29;-1.40;71.80
74364;DHT22;62797;49.740;10.154;2024-01-30T07:52:01;-1.30;71.10
74364;DHT22;62797;49.740;10.154;2024-01-30T07:54:33;-1.30;71.20
74364;DHT22;62797;49.740;10.154;2024-01-30T07:57:05;-1.20;71.20
74364;DHT22;62797;49.740;10.154;2024-01-30T07:59:37;-1.20;71.00
74364;DHT22;62797;49.740;10.154;2024-01-30T08:02:14;-1.20;70.50
74364;DHT22;62797;49.740;10.154;2024-01-30T08:04:46;-1.10;70.80
74364;DHT22;62797;49.740;10.154;2024-01-30T08:07:21;-1.10;70.90
74364;DHT22;62797;49.740;10.154;2024-01-30T08:09:53;-1.00;71.10
74364;DHT22;62797;49.740;10.154;2024-01-30T08:12:26;-0.90;70.60
74364;DHT22;62797;49.740;10.154;2024-01-30T08:14:58;-0.90;70.90
74364;DHT22;62797;49.740;10.154;2024-01-30T08:17:30;-0.70;70.70
74364;DHT22;62797;49.740;10.154;2024-01-30T08:20:01;-0.60;70.10
74364;DHT22;62797;49.740;10.154;2024-01-30T08:22:43;-0.50;70.30
74364;DHT22;62797;49.740;10.154;2024-01-30T08:25:15;-0.40;69.80
74364;DHT22;62797;49.740;10.154;2024-01-30T08:27:46;-0.30;69.40
74364;DHT22;62797;49.740;10.154;2024-01-30T08:30:19;-0.30;69.00
74364;DHT22;62797;49.740;10.154;2024-01-30T08:32:52;-0.10;68.80
74364;DHT22;62797;49.740;10.154;2024-01-30T08:35:25;-0.10;68.50
74364;DHT22;62797;49.740;10.154;2024-01-30T08:37:58;0.00;68.10
74364;DHT22;62797;49.740;10.154;2024-01-30T08:40:30;0.10;67.90
74364;DHT22;62797;49.740;10.154;2024-01-30T08:43:03;0.20;67.60
74364;DHT22;62797;49.740;10.154;2024-01-30T08:45:36;0.20;67.60
74364;DHT22;62797;49.740;10.154;2024-01-30T08:48:07;0.20;66.90
74364;DHT22;62797;49.740;10.154;2024-01-30T08:50:40;0.30;67.50
74364;DHT22;62797;49.740;10.154;2024-01-30T08:53:13;0.30;67.70
74364;DHT22;62797;49.740;10.154;2024-01-30T08:55:46;0.40;67.30
74364;DHT22;62797;49.740;10.154;2024-01-30T08:58:19;0.50;66.80
74364;DHT22;62797;49.740;10.154;2024-01-30T09:00:51;0.50;67.60
74364;DHT22;62797;49.740;10.154;2024-01-30T09:03:25;0.60;67.40
74364;DHT22;62797;49.740;10.154;2024-01-30T09:06:00;0.80;67.10
74364;DHT22;62797;49.740;10.154;2024-01-30T09:08:33;0.90;67.20
74364;DHT22;62797;49.740;10.154;2024-01-30T09:11:15;1.10;66.80
74364;DHT22;62797;49.740;10.154;2024-01-30T09:13:48;1.10;65.00
74364;DHT22;62797;49.740;10.154;2024-01-30T09:16:21;1.10;65.80
74364;DHT22;62797;49.740;10.154;2024-01-30T09:18:54;1.20;65.00
74364;DHT22;62797;49.740;10.154;2024-01-30T09:21:26;1.30;65.20
74364;DHT22;62797;49.740;10.154;2024-01-30T09:24:05;1.50;65.60
74364;DHT22;62797;49.740;10.154;2024-01-30T09:26:38;1.60;65.90
74364;DHT22;62797;49.740;10.154;2024-01-30T09:29:14;1.70;64.70
74364;DHT22;62797;49.740;10.154;2024-01-30T09:31:53;1.80;65.50
74364;DHT22;62797;49.740;10.154;2024-01-30T09:34:27;1.90;64.90
74364;DHT22;62797;49.740;10.154;2024-01-30T09:37:03;2.00;64.70
74364;DHT22;62797;49.740;10.154;2024-01-30T09:39:35;2.10;64.20
74364;DHT22;62797;49.740;10.154;2024-01-30T09:45:05;2.30;62.90
74364;DHT22;62797;49.740;10.154;2024-01-30T09:47:42;2.40;62.80
74364;DHT22;62797;49.740;10.154;2024-01-30T09:50:15;2.50;62.80
74364;DHT22;62797;49.740;10.154;2024-01-30T09:52:48;2.60;62.60
74364;DHT22;62797;49.740;10.154;2024-01-30T09:55:22;2.70;63.60
74364;DHT22;62797;49.740;10.154;2024-01-30T09:57:54;2.80;60.10
74364;DHT22;62797;49.740;10.154;2024-01-30T10:00:27;2.80;61.60
74364;DHT22;62797;49.740;10.154;2024-01-30T10:02:59;3.00;61.50
74364;DHT22;62797;49.740;10.154;2024-01-30T10:05:33;3.10;61.00
74364;DHT22;62797;49.740;10.154;2024-01-30T10:08:07;3.20;60.90
74364;DHT22;62797;49.740;10.154;2024-01-30T10:10:40;3.30;61.20
74364;DHT22;62797;49.740;10.154;2024-01-30T10:13:13;3.40;61.40
74364;DHT22;62797;49.740;10.154;2024-01-30T10:15:45;3.50;60.80
74364;DHT22;62797;49.740;10.154;2024-01-30T10:18:23;3.70;59.90
74364;DHT22;62797;49.740;10.154;2024-01-30T10:20:56;3.80;59.10
74364;DHT22;62797;49.740;10.154;2024-01-30T10:23:36;3.90;59.40
74364;DHT22;62797;49.740;10.154;2024-01-30T10:26:18;4.00;58.90
74364;DHT22;62797;49.740;10.154;2024-01-30T10:28:51;4.10;58.90
74364;DHT22;62797;49.740;10.154;2024-01-30T10:31:24;4.10;59.10
74364;DHT22;62797;49.740;10.154;2024-01-30T10:33:57;4.20;59.00
74364;DHT22;62797;49.740;10.154;2024-01-30T10:36:31;4.20;59.70
74364;DHT22;62797;49.740;10.154;2024-01-30T10:39:09;4.40;58.90
74364;DHT22;62797;49.740;10.154;2024-01-30T10:41:45;4.50;58.00
74364;DHT22;62797;49.740;10.154;2024-01-30T10:44:22;4.50;58.00
74364;DHT22;62797;49.740;10.154;2024-01-30T10:47:02;4.50;57.90
74364;DHT22;62797;49.740;10.154;2024-01-30T10:49:35;4.60;57.40
74364;DHT22;62797;49.740;10.154;2024-01-30T10:52:09;4.60;56.90
74364;DHT22;62797;49.740;10.154;2024-01-30T10:54:44;4.70;57.50
74364;DHT22;62797;49.740;10.154;2024-01-30T10:57:17;4.70;57.20
74364;DHT22;62797;49.740;10.154;2024-01-30T10:59:51;4.80;56.10
74364;DHT22;62797;49.740;10.154;2024-01-30T11:02:25;4.90;56.20
74364;DHT22;62797;49.740;10.154;2024-01-30T11:04:59;5.00;56.10
74364;DHT22;62797;49.740;10.154;2024-01-30T11:07:33;5.10;56.30
74364;DHT22;62797;49.740;10.154;2024-01-30T11:10:07;5.30;55.60
74364;DHT22;62797;49.740;10.154;2024-01-30T11:12:41;5.40;54.80
74364;DHT22;62797;49.740;10.154;2024-01-30T11:15:15;5.40;53.50
74364;DHT22;62797;49.740;10.154;2024-01-30T11:20:27;5.50;53.60
74364;DHT22;62797;49.740;10.154;2024-01-30T11:23:11;5.60;52.80
74364;DHT22;62797;49.740;10.154;2024-01-30T11:25:45;5.70;53.10
74364;DHT22;62797;49.740;10.154;2024-01-30T11:28:17;5.70;52.50
74364;DHT22;62797;49.740;10.154;2024-01-30T11:30:51;5.70;52.00
74364;DHT22;62797;49.740;10.154;2024-01-30T11:33:30;5.80;51.70
74364;DHT22;62797;49.740;10.154;2024-01-30T11:36:03;5.80;51.90
74364;DHT22;62797;49.740;10.154;2024-01-30T11:38:38;5.80;51.40
74364;DHT22;62797;49.740;10.154;2024-01-30T11:41:11;5.90;51.50
74364;DHT22;62797;49.740;10.154;2024-01-30T11:43:42;6.00;51.10
74364;DHT22;62797;49.740;10.154;2024-01-30T11:46:15;6.10;51.20
74364;DHT22;62797;49.740;10.154;2024-01-30T11:48:47;6.10;49.80
74364;DHT22;62797;49.740;10.154;2024-01-30T11:51:19;6.10;50.40
74364;DHT22;62797;49.740;10.154;2024-01-30T11:53:52;6.20;50.40
74364;DHT22;62797;49.740;10.154;2024-01-30T11:56:24;6.30;49.40
74364;DHT22;62797;49.740;10.154;2024-01-30T11:58:56;6.40;49.20
74364;DHT22;62797;49.740;10.154;2024-01-30T12:01:29;6.50;48.30
74364;DHT22;62797;49.740;10.154;2024-01-30T12:04:02;6.50;47.20
